Grayburg, Texas
Current Conditions -  °F | °C
As of 2:55 AM on Thursday 23 Oct 2014 (Local Time) from KBMT Reporting Station
Clear Clear  
Wind Chill: 61°   Ceiling: Unl
Heat Index: 61°   Visibility: 10mi
Dew Point: 53°   Wind: 5mph
Humidity: 74%   Direction: 50°NE
Pressure: 30.09"   Gusts: NA
Location:  30.1611°N, 94.4087°W
Report Text: KBMT 230755Z AUTO 05004KT 10SM CLR 16/12 A3009 RMK AO2 T01630117
Loading
Personal Weather Stations






























Interactive Weather Map
Tropical Storm Tracking
New forecast layout! Learn more

10-Day Weather Forecast

Advertisements
Track Severe Weather on mobile